Time;durP1;ratioP1;P1;durP2;ratioP2;P2;SDS_P1;SDS_P2;PMS_P1;PMS_P2;Temp;Humidity;BMP_temperature;BMP_pressure;BME280_temperature;BME280_humidity;BME280_pressure;Samples;Min_cycle;Max_cycle;Signal;HPM_P1;HPM_P2
2023/08/01 00:01:49;;;;;;;1.60;1.50;;;20.20;70.10;;;;;;5051709;28;20685;-64
2023/08/01 00:04:14;;;;;;;1.30;1.20;;;20.20;70.10;;;;;;5052642;28;20548;-64
2023/08/01 00:06:40;;;;;;;1.20;1.10;;;20.20;70.10;;;;;;5052218;28;20171;-63
2023/08/01 00:09:05;;;;;;;1.30;1.20;;;20.20;70.10;;;;;;5052212;28;20221;-62
2023/08/01 00:11:31;;;;;;;1.08;0.80;;;20.20;70.20;;;;;;5052947;28;20186;-63
2023/08/01 00:13:56;;;;;;;2.08;1.55;;;20.20;70.50;;;;;;5051983;28;20171;-63
2023/08/01 00:16:22;;;;;;;1.60;1.50;;;20.20;70.10;;;;;;5053013;28;20171;-63
2023/08/01 00:18:47;;;;;;;1.40;1.25;;;20.20;70.20;;;;;;5052662;28;20181;-62
2023/08/01 00:21:13;;;;;;;1.15;1.15;;;20.20;70.20;;;;;;5051719;28;20199;-63
2023/08/01 00:23:38;;;;;;;1.92;1.40;;;20.30;70.30;;;;;;5052522;28;20280;-63
2023/08/01 00:26:04;;;;;;;2.05;1.50;;;20.20;70.20;;;;;;5052361;28;20240;-63
2023/08/01 00:28:30;;;;;;;2.60;1.33;;;20.20;70.30;;;;;;5051892;28;20258;-63
2023/08/01 00:31:06;;;;;;;1.92;1.45;;;20.20;70.20;;;;;;5052484;28;20239;-63
2023/08/01 00:33:32;;;;;;;1.20;1.10;;;20.20;70.30;;;;;;5052645;28;20170;-64
2023/08/01 00:35:58;;;;;;;1.40;1.30;;;20.20;70.30;;;;;;5051342;28;20265;-64
2023/08/01 00:38:23;;;;;;;1.17;1.10;;;20.20;70.30;;;;;;5052447;28;20317;-64
2023/08/01 00:40:50;;;;;;;1.48;1.33;;;20.20;70.30;;;;;;5052354;28;20230;-64
2023/08/01 00:43:15;;;;;;;1.15;1.05;;;20.20;70.30;;;;;;5051386;28;20789;-63
2023/08/01 00:45:41;;;;;;;1.30;1.20;;;20.20;70.20;;;;;;5052407;28;20283;-64
2023/08/01 00:48:06;;;;;;;1.30;1.20;;;20.20;70.30;;;;;;5052006;28;20186;-63
2023/08/01 00:50:33;;;;;;;1.48;1.38;;;20.10;70.20;;;;;;5051626;28;20175;-63
2023/08/01 00:52:58;;;;;;;1.80;1.10;;;20.20;70.30;;;;;;5051073;28;20274;-63
2023/08/01 00:55:24;;;;;;;1.50;1.30;;;20.20;70.30;;;;;;5050896;28;20254;-63
2023/08/01 00:57:49;;;;;;;2.58;1.58;;;20.20;70.30;;;;;;5052213;28;20209;-63
2023/08/01 01:00:15;;;;;;;1.42;1.20;;;20.20;70.20;;;;;;5050810;28;20183;-63
2023/08/01 01:02:41;;;;;;;1.73;1.52;;;20.20;70.20;;;;;;5051344;28;20214;-64
2023/08/01 01:05:06;;;;;;;1.35;1.23;;;20.20;71.10;;;;;;5051861;28;20179;-63
2023/08/01 01:07:32;;;;;;;1.27;1.17;;;20.20;70.20;;;;;;5052232;28;20279;-63
2023/08/01 01:09:58;;;;;;;2.35;1.60;;;20.20;70.20;;;;;;5050986;28;20175;-63
2023/08/01 01:12:24;;;;;;;1.58;1.40;;;20.20;70.20;;;;;;5052075;28;20546;-63
2023/08/01 01:14:49;;;;;;;2.10;1.30;;;20.10;70.20;;;;;;5052050;28;20175;-63
2023/08/01 01:17:15;;;;;;;1.30;1.20;;;20.20;70.20;;;;;;5051105;28;20954;-62
2023/08/01 01:19:40;;;;;;;1.40;1.30;;;20.20;70.20;;;;;;5054278;28;20634;-63
2023/08/01 01:22:07;;;;;;;2.35;1.58;;;20.10;70.10;;;;;;5055595;28;20207;-63
2023/08/01 01:24:33;;;;;;;1.02;1.00;;;20.10;70.10;;;;;;5054275;28;20197;-62
2023/08/01 01:26:59;;;;;;;1.40;1.30;;;20.10;70.10;;;;;;5054406;28;20175;-63
2023/08/01 01:29:26;;;;;;;1.25;1.15;;;20.10;70.10;;;;;;5054398;28;20561;-63
2023/08/01 01:31:51;;;;;;;1.27;1.17;;;20.10;70.10;;;;;;5055056;28;20203;-63
2023/08/01 01:34:17;;;;;;;3.45;1.38;;;20.10;70.10;;;;;;5054319;28;20202;-64
2023/08/01 01:36:42;;;;;;;1.33;1.23;;;20.10;70.20;;;;;;5055958;28;20178;-64
2023/08/01 01:39:08;;;;;;;1.45;1.35;;;20.10;70.10;;;;;;5054814;28;20178;-64
2023/08/01 01:41:33;;;;;;;1.83;1.38;;;20.10;70.10;;;;;;5055259;28;20223;-64
2023/08/01 01:43:59;;;;;;;1.92;1.45;;;20.10;70.10;;;;;;5055008;28;20178;-63
2023/08/01 01:46:25;;;;;;;2.03;1.35;;;20.10;70.10;;;;;;5054675;28;20559;-64
2023/08/01 01:48:50;;;;;;;1.63;1.40;;;20.10;70.10;;;;;;5055693;28;20207;-63
2023/08/01 01:51:16;;;;;;;3.75;1.58;;;20.10;70.90;;;;;;5055317;28;20695;-63
2023/08/01 01:53:41;;;;;;;2.97;1.67;;;20.10;70.20;;;;;;5054770;28;20175;-63
2023/08/01 01:56:07;;;;;;;2.45;1.90;;;20.10;70.10;;;;;;5055148;28;20728;-63
2023/08/01 01:58:33;;;;;;;1.70;1.42;;;20.10;70.10;;;;;;5055380;28;20183;-63
2023/08/01 02:00:58;;;;;;;1.58;1.40;;;20.00;70.00;;;;;;5054210;28;20242;-63
2023/08/01 02:03:24;;;;;;;2.75;1.60;;;20.10;70.10;;;;;;5055284;28;20206;-64
2023/08/01 02:05:49;;;;;;;1.65;1.55;;;20.10;70.20;;;;;;5054653;28;20273;-64
2023/08/01 02:08:15;;;;;;;2.38;1.70;;;20.10;70.10;;;;;;5055214;28;20210;-64
2023/08/01 02:10:40;;;;;;;1.75;1.50;;;20.10;70.10;;;;;;5055227;28;20666;-64
2023/08/01 02:13:07;;;;;;;1.88;1.40;;;20.10;70.10;;;;;;5053977;28;20202;-62
2023/08/01 02:15:33;;;;;;;2.15;1.38;;;20.10;70.10;;;;;;5054820;28;20250;-63
2023/08/01 02:17:58;;;;;;;2.08;1.60;;;20.10;70.10;;;;;;5054889;28;20254;-63
2023/08/01 02:20:24;;;;;;;2.28;1.65;;;20.10;70.20;;;;;;5054380;28;20305;-63
2023/08/01 02:22:50;;;;;;;2.33;1.73;;;20.10;71.00;;;;;;5054659;28;20635;-63
2023/08/01 02:25:15;;;;;;;2.20;1.58;;;20.00;70.10;;;;;;5054459;28;20175;-63
2023/08/01 02:27:41;;;;;;;2.33;1.63;;;20.00;70.10;;;;;;5053988;28;20269;-63
2023/08/01 02:30:10;;;;;;;2.17;1.88;;;20.00;70.10;;;;;;5053563;28;20509;-63
2023/08/01 02:32:35;;;;;;;2.63;1.65;;;20.00;70.10;;;;;;5054696;28;20190;-63
2023/08/01 02:35:01;;;;;;;2.20;1.52;;;20.00;70.20;;;;;;5053808;28;20179;-64
2023/08/01 02:37:26;;;;;;;1.75;1.65;;;20.00;70.10;;;;;;5054668;28;20262;-65
2023/08/01 02:39:52;;;;;;;1.60;1.42;;;20.00;70.10;;;;;;5054520;28;20174;-64
2023/08/01 02:42:18;;;;;;;2.42;1.40;;;20.00;70.10;;;;;;5053324;28;20231;-63
2023/08/01 02:44:43;;;;;;;1.92;1.73;;;19.90;70.10;;;;;;5054639;28;20650;-63
2023/08/01 02:47:09;;;;;;;2.38;1.67;;;20.00;70.10;;;;;;5054157;28;20536;-63
2023/08/01 02:49:34;;;;;;;3.13;1.75;;;20.00;70.10;;;;;;5053972;28;20232;-63
2023/08/01 02:52:00;;;;;;;2.15;1.45;;;20.00;70.10;;;;;;5054141;28;20179;-63
2023/08/01 02:54:25;;;;;;;2.35;2.03;;;20.00;70.10;;;;;;5054633;28;20179;-63
2023/08/01 02:56:51;;;;;;;1.88;1.45;;;20.00;70.10;;;;;;5053783;28;20206;-64
2023/08/01 02:59:18;;;;;;;2.88;1.63;;;20.00;70.00;;;;;;5053911;28;20175;-64
2023/08/01 03:01:43;;;;;;;1.92;1.70;;;20.00;70.10;;;;;;5054091;28;20262;-64
2023/08/01 03:04:11;;;;;;;1.80;1.70;;;20.00;70.00;;;;;;5053126;28;20261;-64
2023/08/01 03:06:37;;;;;;;2.20;1.98;;;20.00;70.10;;;;;;5054223;28;20168;-64
2023/08/01 03:09:02;;;;;;;2.53;1.70;;;19.90;70.00;;;;;;5052939;28;20175;-63
2023/08/01 03:11:28;;;;;;;3.25;1.90;;;20.00;70.30;;;;;;5053936;28;20171;-63
2023/08/01 03:13:53;;;;;;;2.33;1.95;;;20.00;70.00;;;;;;5053844;28;20178;-63
2023/08/01 03:16:19;;;;;;;2.35;1.80;;;20.00;70.00;;;;;;5052327;28;20179;-63
2023/08/01 03:18:44;;;;;;;2.10;1.65;;;20.00;70.00;;;;;;5054089;28;20176;-63
2023/08/01 03:21:10;;;;;;;2.80;1.60;;;20.00;70.00;;;;;;5053778;28;20182;-63
2023/08/01 03:23:36;;;;;;;1.70;1.60;;;20.00;70.00;;;;;;5052886;28;20215;-63
2023/08/01 03:26:02;;;;;;;3.78;1.90;;;20.00;70.10;;;;;;5053227;28;20522;-62
2023/08/01 03:28:27;;;;;;;1.65;1.52;;;20.00;70.00;;;;;;5053536;28;20175;-62
2023/08/01 03:30:53;;;;;;;2.75;1.70;;;20.00;70.00;;;;;;5052804;28;20179;-63
2023/08/01 03:33:20;;;;;;;2.17;1.90;;;20.00;70.00;;;;;;5052244;28;20188;-64
2023/08/01 03:35:45;;;;;;;2.45;1.90;;;20.00;70.00;;;;;;5053671;28;20205;-64
2023/08/01 03:38:11;;;;;;;3.80;1.95;;;19.90;70.00;;;;;;5052498;28;20630;-64
2023/08/01 03:40:36;;;;;;;1.80;1.65;;;20.00;70.90;;;;;;5053001;28;20630;-64
2023/08/01 03:43:02;;;;;;;2.22;2.03;;;20.00;70.10;;;;;;5051982;28;20269;-63
2023/08/01 03:45:27;;;;;;;3.40;2.20;;;20.00;70.00;;;;;;5052748;28;20221;-63
2023/08/01 03:47:53;;;;;;;2.20;2.00;;;19.90;69.90;;;;;;5053444;28;20187;-63
2023/08/01 03:50:18;;;;;;;3.40;1.95;;;20.00;70.00;;;;;;5052955;28;20171;-63
2023/08/01 03:52:45;;;;;;;1.83;1.73;;;19.90;69.90;;;;;;5052491;28;20266;-63
2023/08/01 03:55:10;;;;;;;3.63;2.10;;;19.90;69.90;;;;;;5052911;28;20591;-63
2023/08/01 03:57:38;;;;;;;2.10;1.90;;;19.90;70.00;;;;;;5052983;28;20178;-63
2023/08/01 04:00:13;;;;;;;3.45;1.90;;;19.90;69.90;;;;;;5052304;28;20183;-64
2023/08/01 04:02:40;;;;;;;2.50;1.90;;;20.00;70.00;;;;;;5053205;28;20217;-63
2023/08/01 04:05:05;;;;;;;3.58;2.42;;;19.90;70.00;;;;;;5052796;28;20179;-63
2023/08/01 04:07:31;;;;;;;3.65;2.22;;;19.90;70.00;;;;;;5052233;28;20623;-63
2023/08/01 04:09:56;;;;;;;2.97;2.10;;;19.90;70.00;;;;;;5052546;28;20216;-63
2023/08/01 04:12:22;;;;;;;2.47;1.90;;;19.90;70.00;;;;;;5052236;28;20254;-62
2023/08/01 04:14:47;;;;;;;3.80;2.10;;;19.90;69.90;;;;;;5053050;28;20506;-63
2023/08/01 04:17:13;;;;;;;2.60;1.90;;;19.90;70.00;;;;;;5052532;28;20179;-63
2023/08/01 04:19:38;;;;;;;3.70;1.95;;;19.90;70.00;;;;;;5052170;28;20278;-63
2023/08/01 04:22:04;;;;;;;4.03;2.40;;;19.90;70.00;;;;;;5052283;28;20206;-63
2023/08/01 04:24:30;;;;;;;2.17;1.90;;;19.90;70.00;;;;;;5052673;28;20171;-62
2023/08/01 04:26:56;;;;;;;3.50;2.63;;;19.90;70.00;;;;;;5051859;28;20167;-62
2023/08/01 04:29:21;;;;;;;2.40;2.10;;;19.90;70.90;;;;;;5052639;28;20539;-63
2023/08/01 04:31:47;;;;;;;3.75;2.35;;;19.90;70.10;;;;;;5052689;28;20660;-63
2023/08/01 04:34:12;;;;;;;3.38;2.30;;;19.90;70.10;;;;;;5051690;28;20187;-64
2023/08/01 04:36:38;;;;;;;4.10;2.60;;;19.90;70.10;;;;;;5052561;28;20171;-64
2023/08/01 04:39:03;;;;;;;2.80;2.30;;;19.90;70.10;;;;;;5052111;28;20174;-63
2023/08/01 04:41:29;;;;;;;3.65;2.22;;;19.90;70.10;;;;;;5051405;28;20226;-63
2023/08/01 04:43:55;;;;;;;3.20;2.17;;;19.90;70.10;;;;;;5052499;28;20258;-63
2023/08/01 04:46:20;;;;;;;3.10;2.15;;;19.90;70.20;;;;;;5052349;28;20182;-63
2023/08/01 04:48:46;;;;;;;3.80;2.30;;;19.90;70.10;;;;;;5051758;28;20257;-63
2023/08/01 04:51:11;;;;;;;3.97;2.03;;;19.90;70.20;;;;;;5052039;28;20194;-63
2023/08/01 04:53:37;;;;;;;3.63;2.20;;;19.90;70.20;;;;;;5052133;28;20262;-63
2023/08/01 04:56:02;;;;;;;3.72;1.83;;;19.90;70.10;;;;;;5051265;28;20215;-63
2023/08/01 04:58:30;;;;;;;2.53;2.15;;;19.90;70.20;;;;;;5052174;28;20179;-63
2023/08/01 05:00:55;;;;;;;3.35;2.33;;;19.90;70.10;;;;;;5052042;28;20187;-64
2023/08/01 05:03:21;;;;;;;5.65;2.50;;;19.90;70.30;;;;;;5051421;28;20301;-63
2023/08/01 05:05:47;;;;;;;3.33;1.92;;;19.90;70.20;;;;;;5051981;28;20174;-64
2023/08/01 05:08:12;;;;;;;4.63;2.20;;;19.90;70.20;;;;;;5052031;28;20175;-63
2023/08/01 05:10:38;;;;;;;4.53;2.33;;;19.90;70.20;;;;;;5051696;28;20177;-62
2023/08/01 05:13:03;;;;;;;2.92;2.28;;;19.90;70.20;;;;;;5052044;28;20225;-63
2023/08/01 05:15:29;;;;;;;3.80;2.20;;;19.90;70.30;;;;;;5051851;28;20182;-63
2023/08/01 05:18:00;;;;;;;3.20;2.08;;;19.90;70.30;;;;;;5051112;28;20189;-62
2023/08/01 05:20:30;;;;;;;3.35;2.28;;;19.90;70.30;;;;;;5052061;28;20205;-63
2023/08/01 05:22:59;;;;;;;3.67;2.22;;;19.90;70.30;;;;;;5051029;28;20302;-62
2023/08/01 05:25:24;;;;;;;4.38;1.98;;;19.90;70.20;;;;;;5051955;28;20179;-62
2023/08/01 05:27:50;;;;;;;4.00;2.17;;;19.90;70.20;;;;;;5052074;28;20179;-63
2023/08/01 05:30:16;;;;;;;3.38;2.00;;;19.90;70.20;;;;;;5050958;28;20551;-63
2023/08/01 05:32:43;;;;;;;4.30;2.47;;;19.90;70.20;;;;;;5052111;28;20182;-64
2023/08/01 05:35:09;;;;;;;4.95;2.63;;;19.90;70.20;;;;;;5051695;28;20182;-64
2023/08/01 05:37:34;;;;;;;4.65;2.50;;;19.90;70.20;;;;;;5051180;28;20171;-64
2023/08/01 05:40:01;;;;;;;2.85;2.08;;;20.00;70.10;;;;;;5051598;28;20210;-64
2023/08/01 05:42:26;;;;;;;4.50;2.50;;;19.90;70.10;;;;;;5051688;28;20237;-63
2023/08/01 05:44:52;;;;;;;3.67;2.20;;;19.90;70.00;;;;;;5051205;28;20261;-64
2023/08/01 05:47:17;;;;;;;3.67;2.22;;;19.90;70.10;;;;;;5051566;28;20254;-63
2023/08/01 05:49:43;;;;;;;4.57;2.45;;;19.90;70.00;;;;;;5050721;28;20203;-63
2023/08/01 05:52:08;;;;;;;3.42;2.28;;;20.00;70.00;;;;;;5050688;28;20207;-63
2023/08/01 05:54:34;;;;;;;2.47;1.98;;;20.00;70.00;;;;;;5051908;28;20167;-63
2023/08/01 05:56:59;;;;;;;4.40;2.63;;;20.00;69.90;;;;;;5051517;28;20662;-63
2023/08/01 05:59:25;;;;;;;3.22;2.20;;;20.00;69.90;;;;;;5049809;28;20175;-64
2023/08/01 06:01:50;;;;;;;2.47;2.20;;;20.00;69.90;;;;;;5051604;28;20182;-65
2023/08/01 06:04:16;;;;;;;4.40;2.25;;;20.00;70.90;;;;;;5051351;28;20642;-65
2023/08/01 06:06:41;;;;;;;4.63;2.38;;;19.90;69.90;;;;;;5052727;28;20172;-64
2023/08/01 06:09:07;;;;;;;5.25;2.38;;;20.00;70.00;;;;;;5055248;28;20168;-64
2023/08/01 06:11:33;;;;;;;4.85;2.80;;;20.00;70.60;;;;;;5055405;28;20568;-63
2023/08/01 06:13:59;;;;;;;4.88;2.70;;;20.00;69.90;;;;;;5054014;28;20250;-62
2023/08/01 06:16:24;;;;;;;3.83;2.63;;;20.00;69.90;;;;;;5055249;28;20206;-63
2023/08/01 06:18:53;;;;;;;4.03;2.38;;;20.00;69.90;;;;;;5055144;28;20179;-64
2023/08/01 06:21:18;;;;;;;4.78;2.42;;;19.90;69.80;;;;;;5054436;28;20175;-64
2023/08/01 06:23:44;;;;;;;3.67;2.78;;;20.00;70.00;;;;;;5055239;28;20265;-63
2023/08/01 06:26:10;;;;;;;3.60;2.78;;;20.00;70.30;;;;;;5054218;28;20178;-64
2023/08/01 06:28:35;;;;;;;4.93;2.60;;;20.00;70.00;;;;;;5054862;28;20229;-64
2023/08/01 06:31:01;;;;;;;3.20;2.47;;;20.00;69.90;;;;;;5054435;28;20171;-64
2023/08/01 06:33:26;;;;;;;4.75;2.78;;;20.00;69.90;;;;;;5053974;28;20179;-64
2023/08/01 06:35:52;;;;;;;5.07;2.80;;;20.00;69.90;;;;;;5054577;28;20214;-64
2023/08/01 06:38:17;;;;;;;4.38;2.88;;;20.00;69.90;;;;;;5054693;28;20199;-65
2023/08/01 06:40:43;;;;;;;3.50;2.88;;;20.00;70.00;;;;;;5053912;28;20510;-64
2023/08/01 06:43:08;;;;;;;3.70;2.60;;;20.00;70.00;;;;;;5054244;28;20280;-64
2023/08/01 06:45:34;;;;;;;4.95;2.63;;;20.00;70.00;;;;;;5054766;28;20190;-63
2023/08/01 06:47:59;;;;;;;5.72;2.72;;;20.00;70.00;;;;;;5053428;28;20175;-63
2023/08/01 06:50:25;;;;;;;6.22;2.92;;;20.00;70.00;;;;;;5054320;28;20198;-64
2023/08/01 06:52:51;;;;;;;4.18;2.80;;;20.00;69.90;;;;;;5054362;28;20312;-62
2023/08/01 06:55:16;;;;;;;3.80;2.42;;;20.10;69.80;;;;;;5053281;28;20262;-63
2023/08/01 06:57:42;;;;;;;5.03;2.60;;;20.10;69.80;;;;;;5054476;28;20183;-64
2023/08/01 07:00:08;;;;;;;5.32;2.83;;;20.10;69.80;;;;;;5053896;28;20167;-64
2023/08/01 07:02:34;;;;;;;4.10;2.38;;;20.20;69.80;;;;;;5053425;28;20203;-64
2023/08/01 07:04:59;;;;;;;5.53;2.70;;;20.20;69.90;;;;;;5053661;28;20182;-65
2023/08/01 07:07:25;;;;;;;5.38;2.63;;;20.20;69.80;;;;;;5054369;28;20207;-64
2023/08/01 07:09:50;;;;;;;5.50;2.83;;;20.20;69.80;;;;;;5053467;28;20167;-64
2023/08/01 07:12:16;;;;;;;4.10;2.58;;;20.20;69.70;;;;;;5053770;28;20193;-63
2023/08/01 07:14:42;;;;;;;4.30;2.63;;;20.20;69.70;;;;;;5053949;28;20171;-63
2023/08/01 07:17:08;;;;;;;5.05;3.17;;;20.20;69.60;;;;;;5052867;28;20168;-63
2023/08/01 07:19:33;;;;;;;3.78;2.70;;;20.20;69.60;;;;;;5053728;28;20234;-63
2023/08/01 07:21:59;;;;;;;5.18;3.20;;;20.20;69.70;;;;;;5053537;28;20171;-64
2023/08/01 07:24:24;;;;;;;5.10;3.10;;;20.30;69.70;;;;;;5052847;28;20179;-64
2023/08/01 07:26:50;;;;;;;4.25;2.63;;;20.30;69.70;;;;;;5053720;28;20254;-62
2023/08/01 07:29:15;;;;;;;4.50;2.53;;;20.30;69.70;;;;;;5052564;28;20226;-62
2023/08/01 07:31:44;;;;;;;5.10;2.83;;;20.20;69.70;;;;;;5053686;28;20178;-65
2023/08/01 07:34:09;;;;;;;3.65;2.70;;;20.20;69.70;;;;;;5053049;28;20171;-65
2023/08/01 07:36:35;;;;;;;3.72;2.78;;;20.20;69.80;;;;;;5052956;28;20178;-65
2023/08/01 07:39:01;;;;;;;3.67;2.75;;;20.30;70.00;;;;;;5052842;28;20171;-67
2023/08/01 07:41:26;;;;;;;4.40;2.50;;;20.20;69.90;;;;;;5053162;28;20751;-64
2023/08/01 07:43:52;;;;;;;4.85;2.80;;;20.30;70.00;;;;;;5052534;28;20584;-64
2023/08/01 07:46:17;;;;;;;6.07;3.22;;;20.20;69.60;;;;;;5053073;28;20541;-64
2023/08/01 07:48:43;;;;;;;3.47;2.90;;;20.30;69.60;;;;;;5053175;28;20225;-63
2023/08/01 07:51:11;;;;;;;3.55;2.60;;;20.30;69.60;;;;;;5052026;28;20183;-63
2023/08/01 07:53:39;;;;;;;6.47;2.58;;;20.40;69.70;;;;;;5053417;28;20332;-62
2023/08/01 07:56:07;;;;;;;4.82;2.63;;;20.40;69.60;;;;;;5052679;28;20186;-61
2023/08/01 07:58:33;;;;;;;3.85;2.55;;;20.50;69.70;;;;;;5052462;28;20190;-62
2023/08/01 08:01:03;;;;;;;5.38;2.58;;;20.50;70.50;;;;;;5052716;28;20183;-63
2023/08/01 08:03:29;;;;;;;5.65;2.58;;;20.50;69.50;;;;;;5052964;28;20294;-63
2023/08/01 08:05:54;;;;;;;4.63;2.63;;;20.50;69.50;;;;;;5052306;28;20262;-63
2023/08/01 08:08:20;;;;;;;4.43;2.53;;;20.60;69.40;;;;;;5051637;28;20262;-64
2023/08/01 08:10:45;;;;;;;3.83;2.83;;;20.70;69.60;;;;;;5053141;28;20210;-64
2023/08/01 08:13:11;;;;;;;4.45;2.47;;;20.70;69.40;;;;;;5051804;28;20166;-63
2023/08/01 08:15:36;;;;;;;4.53;2.85;;;20.70;69.20;;;;;;5052791;28;20189;-63
2023/08/01 08:18:05;;;;;;;5.05;2.90;;;20.70;69.30;;;;;;5052379;28;20179;-63
2023/08/01 08:20:31;;;;;;;3.38;2.65;;;20.60;69.30;;;;;;5052206;28;20313;-63
2023/08/01 08:22:57;;;;;;;4.18;2.97;;;20.60;69.20;;;;;;5052478;28;20666;-63
2023/08/01 08:25:22;;;;;;;4.75;2.60;;;20.60;69.30;;;;;;5052634;28;20253;-63
2023/08/01 08:27:51;;;;;;;4.97;2.63;;;20.60;69.40;;;;;;5052036;28;20526;-64
2023/08/01 08:30:17;;;;;;;3.90;2.55;;;20.60;69.40;;;;;;5050747;28;20236;-64
2023/08/01 08:32:42;;;;;;;6.25;3.25;;;20.50;69.40;;;;;;5051779;28;20175;-64
2023/08/01 08:35:08;;;;;;;3.92;2.58;;;20.50;69.50;;;;;;5052308;28;20179;-63
2023/08/01 08:37:33;;;;;;;6.35;2.88;;;20.50;69.70;;;;;;5052593;28;20535;-63
2023/08/01 08:39:59;;;;;;;5.28;2.92;;;20.50;69.80;;;;;;5050319;28;20186;-63
2023/08/01 08:42:25;;;;;;;4.45;2.72;;;20.60;69.80;;;;;;5055224;28;20222;-63
2023/08/01 08:44:53;;;;;;;5.57;2.70;;;20.60;69.40;;;;;;5058714;28;20189;-63
2023/08/01 08:47:18;;;;;;;3.50;2.47;;;20.70;69.20;;;;;;5053799;28;20175;-63
2023/08/01 08:49:45;;;;;;;4.60;2.63;;;20.70;69.10;;;;;;5042413;28;20262;-62
2023/08/01 08:52:11;;;;;;;5.45;2.67;;;20.70;69.10;;;;;;5050953;28;20195;-63
2023/08/01 08:54:36;;;;;;;5.55;2.75;;;20.80;69.30;;;;;;5050593;28;20224;-62
2023/08/01 08:57:04;;;;;;;4.20;2.92;;;20.80;69.10;;;;;;5053528;28;20187;-62
2023/08/01 08:59:32;;;;;;;5.40;2.78;;;20.90;68.80;;;;;;5071980;28;20178;-63
2023/08/01 09:02:00;;;;;;;6.18;2.70;;;20.80;68.80;;;;;;5069860;28;20539;-63
2023/08/01 09:04:26;;;;;;;4.18;2.65;;;20.80;68.90;;;;;;5071670;28;20362;-63
2023/08/01 09:06:51;;;;;;;5.43;2.65;;;20.80;69.10;;;;;;5061914;28;20217;-63
2023/08/01 09:09:18;;;;;;;3.78;2.65;;;20.80;69.30;;;;;;5051383;28;20596;-63
2023/08/01 09:11:47;;;;;;;4.38;2.38;;;20.80;69.40;;;;;;5052061;28;20183;-63
2023/08/01 09:14:13;;;;;;;3.88;2.20;;;20.70;69.50;;;;;;5054217;28;20206;-63
2023/08/01 09:16:40;;;;;;;4.13;2.60;;;20.80;69.30;;;;;;5071616;28;20290;-63
2023/08/01 09:19:05;;;;;;;5.43;2.83;;;20.80;69.50;;;;;;5071974;28;20179;-63
2023/08/01 09:21:34;;;;;;;4.75;2.47;;;20.80;69.40;;;;;;5072149;28;20185;-63
2023/08/01 09:24:19;;;;;;;5.03;2.20;;;20.80;69.10;;;;;;5070849;28;20214;-62
2023/08/01 09:26:45;;;;;;;3.92;2.72;;;20.80;69.10;;;;;;5072075;28;20198;-62
2023/08/01 09:29:11;;;;;;;4.10;2.50;;;20.90;69.00;;;;;;5070805;28;20660;-62
2023/08/01 09:31:39;;;;;;;4.50;2.53;;;20.80;69.00;;;;;;5072108;28;20210;-64
2023/08/01 09:34:06;;;;;;;3.53;2.30;;;20.90;69.00;;;;;;5071459;28;20257;-63
2023/08/01 09:36:32;;;;;;;4.05;2.30;;;20.90;69.00;;;;;;5071504;28;20186;-64
2023/08/01 09:39:01;;;;;;;3.30;2.40;;;20.90;68.90;;;;;;5071637;28;20179;-63
2023/08/01 09:41:28;;;;;;;4.80;2.50;;;21.00;68.90;;;;;;5073595;28;20382;-63
2023/08/01 09:43:56;;;;;;;4.13;2.40;;;21.00;68.90;;;;;;5073855;28;20218;-62
2023/08/01 09:46:22;;;;;;;2.45;2.13;;;21.00;68.80;;;;;;5075609;28;20173;-63
2023/08/01 09:48:51;;;;;;;3.47;2.47;;;21.00;69.70;;;;;;5069355;28;20553;-62
2023/08/01 09:51:18;;;;;;;2.58;1.65;;;20.90;68.90;;;;;;5054503;28;20595;-62
2023/08/01 09:53:54;;;;;;;4.13;2.60;;;20.80;69.00;;;;;;5055659;28;20186;-62
2023/08/01 09:56:21;;;;;;;4.65;2.22;;;20.80;69.40;;;;;;5055020;28;20173;-62
2023/08/01 09:58:47;;;;;;;3.85;2.20;;;20.80;69.30;;;;;;5055672;28;20649;-62
2023/08/01 10:01:17;;;;;;;4.03;2.15;;;20.80;70.00;;;;;;5073652;28;20181;-62
2023/08/01 10:03:48;;;;;;;5.60;2.42;;;20.80;69.60;;;;;;5055340;28;20225;-63
2023/08/01 10:06:34;;;;;;;4.43;2.33;;;20.90;69.10;;;;;;5054183;28;20179;-63
2023/08/01 10:08:59;;;;;;;4.35;2.38;;;20.90;68.90;;;;;;5053326;28;20270;-62
2023/08/01 10:11:25;;;;;;;3.40;2.05;;;20.90;68.90;;;;;;5054562;28;20174;-62
2023/08/01 10:13:50;;;;;;;3.65;2.33;;;20.90;68.90;;;;;;5055238;28;20284;-62
2023/08/01 10:16:16;;;;;;;5.28;2.38;;;20.90;68.70;;;;;;5054355;28;20175;-61
2023/08/01 10:18:42;;;;;;;3.00;1.98;;;21.00;69.40;;;;;;5053719;28;20167;-61
2023/08/01 10:21:17;;;;;;;3.97;1.90;;;21.10;68.30;;;;;;5054328;28;20254;-61
2023/08/01 10:23:43;;;;;;;4.82;2.40;;;21.20;68.20;;;;;;5054334;28;20183;-62
2023/08/01 10:26:12;;;;;;;3.47;2.35;;;21.20;68.10;;;;;;5052328;28;20175;-62
2023/08/01 10:28:39;;;;;;;3.35;2.17;;;21.20;68.10;;;;;;5054849;28;20214;-62
2023/08/01 10:31:15;;;;;;;3.55;1.98;;;21.10;68.30;;;;;;5053924;28;20314;-61
2023/08/01 10:33:45;;;;;;;3.80;1.90;;;21.20;68.50;;;;;;5053679;28;20209;-62
2023/08/01 10:36:17;;;;;;;4.30;2.15;;;21.20;68.40;;;;;;5051711;28;20622;-64
2023/08/01 10:38:52;;;;;;;2.00;1.63;;;21.20;68.70;;;;;;5054471;28;20206;-63
2023/08/01 10:41:29;;;;;;;4.60;2.20;;;21.20;68.70;;;;;;5053426;28;20317;-62
2023/08/01 10:44:09;;;;;;;3.67;2.00;;;21.20;68.70;;;;;;5054252;28;20219;-62
2023/08/01 10:46:54;;;;;;;5.60;2.22;;;21.10;68.70;;;;;;5053952;28;20228;-62
2023/08/01 10:49:21;;;;;;;4.38;2.38;;;21.20;68.60;;;;;;5064282;28;20178;-61
2023/08/01 10:51:47;;;;;;;3.25;1.80;;;21.20;68.30;;;;;;5073758;28;20174;-61
2023/08/01 10:54:22;;;;;;;4.38;2.00;;;21.30;68.10;;;;;;5073185;28;20175;-61
2023/08/01 10:56:49;;;;;;;3.50;1.98;;;21.30;68.10;;;;;;5074508;28;20208;-61
2023/08/01 10:59:15;;;;;;;2.22;1.90;;;21.30;68.20;;;;;;5074057;28;20179;-61
2023/08/01 11:01:45;;;;;;;2.45;1.95;;;21.40;68.10;;;;;;5073567;28;20174;-62
2023/08/01 11:04:21;;;;;;;3.28;1.80;;;21.40;67.90;;;;;;5073723;28;20677;-63
2023/08/01 11:06:47;;;;;;;4.40;2.10;;;21.50;67.90;;;;;;5074099;28;20193;-63
2023/08/01 11:09:19;;;;;;;3.03;2.10;;;21.50;67.60;;;;;;5073084;28;20178;-62
2023/08/01 11:11:46;;;;;;;2.72;1.90;;;21.50;67.50;;;;;;5074013;28;20206;-62
2023/08/01 11:14:15;;;;;;;2.65;1.48;;;21.60;67.40;;;;;;5072420;28;20544;-63
2023/08/01 11:16:40;;;;;;;5.50;2.08;;;21.60;67.30;;;;;;5073230;28;20251;-63
2023/08/01 11:19:06;;;;;;;3.70;2.20;;;21.50;67.50;;;;;;5055870;28;20269;-63
2023/08/01 11:21:36;;;;;;;3.65;1.80;;;21.60;67.30;;;;;;5073133;28;20540;-63
2023/08/01 11:24:06;;;;;;;2.35;1.50;;;21.60;67.20;;;;;;5073294;28;20210;-62
2023/08/01 11:26:32;;;;;;;3.63;2.05;;;21.60;67.00;;;;;;5073599;28;20166;-62
2023/08/01 11:29:02;;;;;;;2.08;1.50;;;21.70;67.10;;;;;;5072631;28;20240;-62
2023/08/01 11:31:27;;;;;;;3.50;2.00;;;21.70;68.00;;;;;;5073481;28;20178;-63
2023/08/01 11:33:57;;;;;;;3.10;1.80;;;21.70;67.10;;;;;;5073476;28;20609;-65
2023/08/01 11:36:24;;;;;;;4.15;2.05;;;21.80;67.00;;;;;;5072747;28;20209;-65
2023/08/01 11:38:50;;;;;;;5.85;2.05;;;21.80;67.00;;;;;;5055874;28;20194;-64
2023/08/01 11:41:15;;;;;;;2.63;1.60;;;21.80;66.80;;;;;;5065026;28;20226;-65
2023/08/01 11:43:41;;;;;;;4.13;1.73;;;21.80;66.40;;;;;;5052644;28;20225;-64
2023/08/01 11:46:07;;;;;;;4.82;2.10;;;21.80;66.50;;;;;;5052935;28;20185;-66
2023/08/01 11:48:32;;;;;;;6.78;2.88;;;21.70;66.70;;;;;;5053571;28;20179;-63
2023/08/01 11:50:58;;;;;;;3.80;2.03;;;21.80;66.50;;;;;;5052365;28;20288;-63
2023/08/01 11:53:24;;;;;;;3.75;1.80;;;21.80;66.40;;;;;;5053421;28;20183;-63
2023/08/01 11:55:53;;;;;;;5.30;1.90;;;21.70;66.50;;;;;;5053368;28;20241;-63
2023/08/01 11:58:47;;;;;;;3.10;1.80;;;21.70;66.50;;;;;;5052265;28;20179;-63
2023/08/01 12:01:13;;;;;;;2.72;1.75;;;21.70;67.30;;;;;;5048222;28;20179;-63
2023/08/01 12:03:58;;;;;;;2.83;1.70;;;21.60;66.40;;;;;;5051673;28;20211;-64
2023/08/01 12:06:23;;;;;;;3.65;2.42;;;21.70;66.40;;;;;;5053058;28;20178;-64
2023/08/01 12:08:51;;;;;;;2.90;1.58;;;21.80;66.40;;;;;;5052794;28;20175;-63
2023/08/01 12:11:27;;;;;;;3.92;2.00;;;21.80;66.30;;;;;;5051916;28;20606;-63
2023/08/01 12:14:04;;;;;;;6.07;1.90;;;21.80;66.20;;;;;;5053126;28;20170;-63
2023/08/01 12:16:29;;;;;;;1.58;1.48;;;21.80;66.10;;;;;;5053000;28;20203;-63
2023/08/01 12:18:56;;;;;;;2.13;1.60;;;21.80;66.10;;;;;;5052245;28;20198;-62
2023/08/01 12:21:21;;;;;;;3.00;1.90;;;21.70;66.20;;;;;;5052744;28;20745;-62
2023/08/01 12:23:47;;;;;;;4.05;1.65;;;21.70;66.40;;;;;;5052609;28;20298;-62
2023/08/01 12:26:12;;;;;;;2.67;1.88;;;21.60;66.50;;;;;;5051973;28;20232;-63
2023/08/01 12:28:38;;;;;;;2.25;1.60;;;21.60;66.60;;;;;;5052799;28;20228;-63
2023/08/01 12:31:03;;;;;;;2.70;1.52;;;21.50;66.70;;;;;;5052530;28;20254;-61
2023/08/01 12:33:32;;;;;;;2.13;1.60;;;21.50;66.70;;;;;;5052106;28;20175;-64
2023/08/01 12:35:58;;;;;;;2.83;1.63;;;21.40;66.70;;;;;;5051039;28;20187;-64
2023/08/01 12:38:23;;;;;;;1.73;1.38;;;21.50;66.80;;;;;;5052288;28;20536;-64
2023/08/01 12:40:52;;;;;;;2.25;1.73;;;21.40;66.70;;;;;;5051506;28;20188;-64
2023/08/01 12:43:17;;;;;;;3.80;1.70;;;21.40;66.80;;;;;;5052230;28;20680;-64
2023/08/01 12:45:43;;;;;;;2.88;1.80;;;21.40;66.80;;;;;;5052456;28;20181;-64